sensor_id;sensor_type;location;lat;lon;timestamp;P1;durP1;ratioP1;P2;durP2;ratioP2
8628;SDS011;4352;49.404;11.092;2022-11-27T00:02:14;205.07;;;26.57;;
8628;SDS011;4352;49.404;11.092;2022-11-27T00:04:41;184.17;;;24.63;;
8628;SDS011;4352;49.404;11.092;2022-11-27T00:07:08;145.63;;;23.30;;
8628;SDS011;4352;49.404;11.092;2022-11-27T00:09:35;175.57;;;23.87;;
8628;SDS011;4352;49.404;11.092;2022-11-27T00:12:02;167.50;;;26.13;;
8628;SDS011;4352;49.404;11.092;2022-11-27T00:14:31;131.40;;;21.07;;
8628;SDS011;4352;49.404;11.092;2022-11-27T00:16:58;164.70;;;23.90;;
8628;SDS011;4352;49.404;11.092;2022-11-27T00:19:25;107.73;;;20.93;;
8628;SDS011;4352;49.404;11.092;2022-11-27T00:21:53;174.37;;;24.10;;
8628;SDS011;4352;49.404;11.092;2022-11-27T00:24:21;120.97;;;19.17;;
8628;SDS011;4352;49.404;11.092;2022-11-27T00:26:49;97.53;;;17.93;;
8628;SDS011;4352;49.404;11.092;2022-11-27T00:29:16;108.67;;;18.23;;
8628;SDS011;4352;49.404;11.092;2022-11-27T00:31:45;71.40;;;17.03;;
8628;SDS011;4352;49.404;11.092;2022-11-27T00:34:12;75.63;;;15.27;;
8628;SDS011;4352;49.404;11.092;2022-11-27T00:36:39;53.23;;;15.57;;
8628;SDS011;4352;49.404;11.092;2022-11-27T00:39:06;48.73;;;14.47;;
8628;SDS011;4352;49.404;11.092;2022-11-27T00:41:33;46.30;;;15.30;;
8628;SDS011;4352;49.404;11.092;2022-11-27T00:44:00;74.23;;;15.97;;
8628;SDS011;4352;49.404;11.092;2022-11-27T00:46:28;48.67;;;14.73;;
8628;SDS011;4352;49.404;11.092;2022-11-27T00:48:57;46.90;;;13.67;;
8628;SDS011;4352;49.404;11.092;2022-11-27T00:51:26;34.77;;;13.03;;
8628;SDS011;4352;49.404;11.092;2022-11-27T00:53:53;35.23;;;13.63;;
8628;SDS011;4352;49.404;11.092;2022-11-27T00:56:22;22.50;;;12.77;;
8628;SDS011;4352;49.404;11.092;2022-11-27T00:58:50;26.53;;;13.67;;
8628;SDS011;4352;49.404;11.092;2022-11-27T01:01:18;23.17;;;13.20;;
8628;SDS011;4352;49.404;11.092;2022-11-27T01:03:45;19.73;;;11.73;;
8628;SDS011;4352;49.404;11.092;2022-11-27T01:06:14;19.47;;;12.47;;
8628;SDS011;4352;49.404;11.092;2022-11-27T01:08:42;22.57;;;13.17;;
8628;SDS011;4352;49.404;11.092;2022-11-27T01:11:11;20.47;;;12.93;;
8628;SDS011;4352;49.404;11.092;2022-11-27T01:13:39;23.13;;;13.37;;
8628;SDS011;4352;49.404;11.092;2022-11-27T01:16:07;23.30;;;12.67;;
8628;SDS011;4352;49.404;11.092;2022-11-27T01:18:35;19.63;;;11.67;;
8628;SDS011;4352;49.404;11.092;2022-11-27T01:21:03;25.30;;;14.80;;
8628;SDS011;4352;49.404;11.092;2022-11-27T01:23:31;23.57;;;13.43;;
8628;SDS011;4352;49.404;11.092;2022-11-27T01:25:59;24.80;;;14.17;;
8628;SDS011;4352;49.404;11.092;2022-11-27T01:28:27;25.30;;;13.07;;
8628;SDS011;4352;49.404;11.092;2022-11-27T01:30:54;25.73;;;12.83;;
8628;SDS011;4352;49.404;11.092;2022-11-27T01:33:22;23.20;;;12.63;;
8628;SDS011;4352;49.404;11.092;2022-11-27T01:35:52;22.50;;;12.93;;
8628;SDS011;4352;49.404;11.092;2022-11-27T01:38:20;23.40;;;13.90;;
8628;SDS011;4352;49.404;11.092;2022-11-27T01:40:49;22.30;;;12.43;;
8628;SDS011;4352;49.404;11.092;2022-11-27T01:43:16;21.93;;;12.47;;
8628;SDS011;4352;49.404;11.092;2022-11-27T01:45:43;21.33;;;13.07;;
8628;SDS011;4352;49.404;11.092;2022-11-27T01:48:11;23.47;;;11.93;;
8628;SDS011;4352;49.404;11.092;2022-11-27T01:50:39;23.43;;;12.73;;
8628;SDS011;4352;49.404;11.092;2022-11-27T01:53:08;24.20;;;13.00;;
8628;SDS011;4352;49.404;11.092;2022-11-27T01:55:38;22.77;;;12.87;;
8628;SDS011;4352;49.404;11.092;2022-11-27T01:58:08;20.33;;;11.87;;
8628;SDS011;4352;49.404;11.092;2022-11-27T02:00:36;20.53;;;11.67;;
8628;SDS011;4352;49.404;11.092;2022-11-27T02:03:03;22.20;;;12.90;;
8628;SDS011;4352;49.404;11.092;2022-11-27T02:05:30;22.23;;;12.63;;
8628;SDS011;4352;49.404;11.092;2022-11-27T02:07:59;20.40;;;11.60;;
8628;SDS011;4352;49.404;11.092;2022-11-27T02:10:31;22.07;;;12.10;;
8628;SDS011;4352;49.404;11.092;2022-11-27T02:13:02;24.80;;;12.17;;
8628;SDS011;4352;49.404;11.092;2022-11-27T02:15:33;24.03;;;12.47;;
8628;SDS011;4352;49.404;11.092;2022-11-27T02:18:05;25.33;;;12.33;;
8628;SDS011;4352;49.404;11.092;2022-11-27T02:20:39;26.37;;;13.50;;
8628;SDS011;4352;49.404;11.092;2022-11-27T02:23:21;18.83;;;11.53;;
8628;SDS011;4352;49.404;11.092;2022-11-27T02:26:06;23.80;;;12.23;;
8628;SDS011;4352;49.404;11.092;2022-11-27T02:28:40;21.07;;;12.23;;
8628;SDS011;4352;49.404;11.092;2022-11-27T02:31:11;21.60;;;12.40;;
8628;SDS011;4352;49.404;11.092;2022-11-27T02:33:40;22.47;;;12.57;;
8628;SDS011;4352;49.404;11.092;2022-11-27T02:36:10;26.43;;;12.63;;
8628;SDS011;4352;49.404;11.092;2022-11-27T02:38:40;20.53;;;11.87;;
8628;SDS011;4352;49.404;11.092;2022-11-27T02:41:10;20.90;;;11.90;;
8628;SDS011;4352;49.404;11.092;2022-11-27T02:43:39;20.17;;;11.43;;
8628;SDS011;4352;49.404;11.092;2022-11-27T02:46:07;21.73;;;11.93;;
8628;SDS011;4352;49.404;11.092;2022-11-27T02:48:37;21.53;;;12.73;;
8628;SDS011;4352;49.404;11.092;2022-11-27T02:51:05;22.43;;;11.93;;
8628;SDS011;4352;49.404;11.092;2022-11-27T02:53:34;19.07;;;11.57;;
8628;SDS011;4352;49.404;11.092;2022-11-27T02:56:02;23.57;;;12.50;;
8628;SDS011;4352;49.404;11.092;2022-11-27T02:58:29;26.03;;;12.67;;
8628;SDS011;4352;49.404;11.092;2022-11-27T03:00:56;24.63;;;11.83;;
8628;SDS011;4352;49.404;11.092;2022-11-27T03:03:25;42.63;;;12.73;;
8628;SDS011;4352;49.404;11.092;2022-11-27T03:06:00;75.93;;;13.40;;
8628;SDS011;4352;49.404;11.092;2022-11-27T03:08:28;172.03;;;17.10;;
8628;SDS011;4352;49.404;11.092;2022-11-27T03:10:57;131.47;;;15.60;;
8628;SDS011;4352;49.404;11.092;2022-11-27T03:13:28;136.43;;;15.67;;
8628;SDS011;4352;49.404;11.092;2022-11-27T03:15:58;95.93;;;14.00;;
8628;SDS011;4352;49.404;11.092;2022-11-27T03:18:29;70.97;;;13.17;;
8628;SDS011;4352;49.404;11.092;2022-11-27T03:20:58;42.63;;;12.57;;
8628;SDS011;4352;49.404;11.092;2022-11-27T03:23:28;30.67;;;12.30;;
8628;SDS011;4352;49.404;11.092;2022-11-27T03:25:55;54.33;;;13.00;;
8628;SDS011;4352;49.404;11.092;2022-11-27T03:28:22;49.53;;;12.27;;
8628;SDS011;4352;49.404;11.092;2022-11-27T03:30:49;75.67;;;14.27;;
8628;SDS011;4352;49.404;11.092;2022-11-27T03:33:17;46.83;;;13.53;;
8628;SDS011;4352;49.404;11.092;2022-11-27T03:35:44;34.50;;;11.90;;
8628;SDS011;4352;49.404;11.092;2022-11-27T03:38:11;24.13;;;12.30;;
8628;SDS011;4352;49.404;11.092;2022-11-27T03:40:42;23.87;;;11.57;;
8628;SDS011;4352;49.404;11.092;2022-11-27T03:43:12;24.87;;;12.47;;
8628;SDS011;4352;49.404;11.092;2022-11-27T03:45:42;20.80;;;11.63;;
8628;SDS011;4352;49.404;11.092;2022-11-27T03:48:17;18.40;;;11.60;;
8628;SDS011;4352;49.404;11.092;2022-11-27T03:50:49;17.97;;;10.90;;
8628;SDS011;4352;49.404;11.092;2022-11-27T03:53:18;16.90;;;10.10;;
8628;SDS011;4352;49.404;11.092;2022-11-27T03:55:48;21.30;;;11.40;;
8628;SDS011;4352;49.404;11.092;2022-11-27T03:58:19;20.43;;;10.63;;
8628;SDS011;4352;49.404;11.092;2022-11-27T04:00:48;22.67;;;11.30;;
8628;SDS011;4352;49.404;11.092;2022-11-27T04:03:21;21.77;;;11.47;;
8628;SDS011;4352;49.404;11.092;2022-11-27T04:05:48;20.87;;;10.87;;
8628;SDS011;4352;49.404;11.092;2022-11-27T04:08:15;18.63;;;10.23;;
8628;SDS011;4352;49.404;11.092;2022-11-27T04:10:43;17.83;;;10.23;;
8628;SDS011;4352;49.404;11.092;2022-11-27T04:13:11;20.90;;;9.90;;
8628;SDS011;4352;49.404;11.092;2022-11-27T04:15:38;17.03;;;10.57;;
8628;SDS011;4352;49.404;11.092;2022-11-27T04:18:05;22.53;;;11.27;;
8628;SDS011;4352;49.404;11.092;2022-11-27T04:20:33;22.33;;;11.20;;
8628;SDS011;4352;49.404;11.092;2022-11-27T04:23:00;20.70;;;11.37;;
8628;SDS011;4352;49.404;11.092;2022-11-27T04:25:27;20.57;;;11.67;;
8628;SDS011;4352;49.404;11.092;2022-11-27T04:27:54;18.57;;;10.00;;
8628;SDS011;4352;49.404;11.092;2022-11-27T04:30:23;20.20;;;10.90;;
8628;SDS011;4352;49.404;11.092;2022-11-27T04:32:50;19.57;;;11.00;;
8628;SDS011;4352;49.404;11.092;2022-11-27T04:35:17;18.30;;;10.80;;
8628;SDS011;4352;49.404;11.092;2022-11-27T04:37:44;20.00;;;10.37;;
8628;SDS011;4352;49.404;11.092;2022-11-27T04:40:11;16.87;;;9.73;;
8628;SDS011;4352;49.404;11.092;2022-11-27T04:42:39;16.23;;;9.80;;
8628;SDS011;4352;49.404;11.092;2022-11-27T04:45:06;15.47;;;9.77;;
8628;SDS011;4352;49.404;11.092;2022-11-27T04:47:35;16.93;;;9.80;;
8628;SDS011;4352;49.404;11.092;2022-11-27T04:50:02;18.43;;;10.13;;
8628;SDS011;4352;49.404;11.092;2022-11-27T04:52:30;17.23;;;9.73;;
8628;SDS011;4352;49.404;11.092;2022-11-27T04:54:57;16.33;;;9.37;;
8628;SDS011;4352;49.404;11.092;2022-11-27T04:57:24;15.20;;;9.27;;
8628;SDS011;4352;49.404;11.092;2022-11-27T04:59:51;28.80;;;13.63;;
8628;SDS011;4352;49.404;11.092;2022-11-27T05:02:18;21.93;;;11.63;;
8628;SDS011;4352;49.404;11.092;2022-11-27T05:04:46;28.53;;;15.60;;
8628;SDS011;4352;49.404;11.092;2022-11-27T05:07:14;39.90;;;20.37;;
8628;SDS011;4352;49.404;11.092;2022-11-27T05:09:41;46.90;;;21.10;;
8628;SDS011;4352;49.404;11.092;2022-11-27T05:12:08;33.77;;;16.77;;
8628;SDS011;4352;49.404;11.092;2022-11-27T05:14:35;38.30;;;14.20;;
8628;SDS011;4352;49.404;11.092;2022-11-27T05:17:03;79.87;;;14.30;;
8628;SDS011;4352;49.404;11.092;2022-11-27T05:19:30;113.53;;;13.40;;
8628;SDS011;4352;49.404;11.092;2022-11-27T05:21:58;85.53;;;11.93;;
8628;SDS011;4352;49.404;11.092;2022-11-27T05:24:26;120.57;;;14.50;;
8628;SDS011;4352;49.404;11.092;2022-11-27T05:26:53;139.13;;;14.13;;
8628;SDS011;4352;49.404;11.092;2022-11-27T05:29:21;79.90;;;12.10;;
8628;SDS011;4352;49.404;11.092;2022-11-27T05:31:48;91.87;;;11.73;;
8628;SDS011;4352;49.404;11.092;2022-11-27T05:34:16;123.50;;;13.80;;
8628;SDS011;4352;49.404;11.092;2022-11-27T05:36:44;150.57;;;14.67;;
8628;SDS011;4352;49.404;11.092;2022-11-27T05:39:12;119.70;;;12.53;;
8628;SDS011;4352;49.404;11.092;2022-11-27T05:41:40;139.83;;;13.83;;
8628;SDS011;4352;49.404;11.092;2022-11-27T05:44:09;135.10;;;14.40;;
8628;SDS011;4352;49.404;11.092;2022-11-27T05:46:36;120.63;;;13.70;;
8628;SDS011;4352;49.404;11.092;2022-11-27T05:49:03;113.00;;;12.63;;
8628;SDS011;4352;49.404;11.092;2022-11-27T05:51:31;185.13;;;15.17;;
8628;SDS011;4352;49.404;11.092;2022-11-27T05:53:58;141.00;;;13.13;;
8628;SDS011;4352;49.404;11.092;2022-11-27T05:56:26;108.63;;;12.63;;
8628;SDS011;4352;49.404;11.092;2022-11-27T05:58:54;158.90;;;13.87;;
8628;SDS011;4352;49.404;11.092;2022-11-27T06:01:21;77.97;;;12.00;;
8628;SDS011;4352;49.404;11.092;2022-11-27T06:03:48;123.87;;;12.90;;
8628;SDS011;4352;49.404;11.092;2022-11-27T06:06:16;74.20;;;10.90;;
8628;SDS011;4352;49.404;11.092;2022-11-27T06:08:44;134.37;;;14.53;;
8628;SDS011;4352;49.404;11.092;2022-11-27T06:11:12;75.23;;;11.93;;
8628;SDS011;4352;49.404;11.092;2022-11-27T06:13:41;78.13;;;12.07;;
8628;SDS011;4352;49.404;11.092;2022-11-27T06:16:10;136.20;;;13.10;;
8628;SDS011;4352;49.404;11.092;2022-11-27T06:18:37;103.33;;;13.23;;
8628;SDS011;4352;49.404;11.092;2022-11-27T06:21:05;76.93;;;10.80;;
8628;SDS011;4352;49.404;11.092;2022-11-27T06:23:33;88.37;;;12.90;;
8628;SDS011;4352;49.404;11.092;2022-11-27T06:26:10;50.90;;;10.77;;
8628;SDS011;4352;49.404;11.092;2022-11-27T06:28:37;63.00;;;11.17;;
8628;SDS011;4352;49.404;11.092;2022-11-27T06:31:07;25.30;;;10.40;;
8628;SDS011;4352;49.404;11.092;2022-11-27T06:33:36;28.97;;;10.33;;
8628;SDS011;4352;49.404;11.092;2022-11-27T06:36:03;38.57;;;11.07;;
8628;SDS011;4352;49.404;11.092;2022-11-27T06:38:31;29.90;;;10.87;;
8628;SDS011;4352;49.404;11.092;2022-11-27T06:41:02;32.87;;;11.93;;
8628;SDS011;4352;49.404;11.092;2022-11-27T06:43:29;45.60;;;10.63;;
8628;SDS011;4352;49.404;11.092;2022-11-27T06:45:57;40.37;;;12.23;;
8628;SDS011;4352;49.404;11.092;2022-11-27T06:48:25;38.73;;;11.83;;
8628;SDS011;4352;49.404;11.092;2022-11-27T06:50:53;56.87;;;12.30;;
8628;SDS011;4352;49.404;11.092;2022-11-27T06:53:20;57.93;;;14.00;;
8628;SDS011;4352;49.404;11.092;2022-11-27T06:55:47;64.07;;;13.67;;
8628;SDS011;4352;49.404;11.092;2022-11-27T06:58:14;84.30;;;13.77;;
8628;SDS011;4352;49.404;11.092;2022-11-27T07:00:41;93.07;;;15.70;;
8628;SDS011;4352;49.404;11.092;2022-11-27T07:03:08;130.50;;;15.97;;
8628;SDS011;4352;49.404;11.092;2022-11-27T07:05:37;115.97;;;16.53;;
8628;SDS011;4352;49.404;11.092;2022-11-27T07:08:05;92.27;;;15.73;;
8628;SDS011;4352;49.404;11.092;2022-11-27T07:10:32;156.77;;;17.60;;
8628;SDS011;4352;49.404;11.092;2022-11-27T07:13:00;109.67;;;15.43;;
8628;SDS011;4352;49.404;11.092;2022-11-27T07:15:27;101.53;;;16.67;;
8628;SDS011;4352;49.404;11.092;2022-11-27T07:17:54;90.07;;;16.93;;
8628;SDS011;4352;49.404;11.092;2022-11-27T07:20:21;84.00;;;15.27;;
8628;SDS011;4352;49.404;11.092;2022-11-27T07:22:49;67.13;;;16.30;;
8628;SDS011;4352;49.404;11.092;2022-11-27T07:25:18;67.90;;;16.20;;
8628;SDS011;4352;49.404;11.092;2022-11-27T07:27:45;92.37;;;17.00;;
8628;SDS011;4352;49.404;11.092;2022-11-27T07:30:12;52.93;;;16.00;;
8628;SDS011;4352;49.404;11.092;2022-11-27T07:32:40;57.47;;;16.97;;
8628;SDS011;4352;49.404;11.092;2022-11-27T07:35:07;53.20;;;17.17;;
8628;SDS011;4352;49.404;11.092;2022-11-27T07:37:34;69.63;;;18.60;;
8628;SDS011;4352;49.404;11.092;2022-11-27T07:40:03;53.03;;;16.13;;
8628;SDS011;4352;49.404;11.092;2022-11-27T07:42:31;51.47;;;16.87;;
8628;SDS011;4352;49.404;11.092;2022-11-27T07:44:58;50.23;;;15.37;;
8628;SDS011;4352;49.404;11.092;2022-11-27T07:47:25;65.37;;;14.87;;
8628;SDS011;4352;49.404;11.092;2022-11-27T07:49:52;67.70;;;14.87;;
8628;SDS011;4352;49.404;11.092;2022-11-27T07:52:22;61.03;;;14.20;;
8628;SDS011;4352;49.404;11.092;2022-11-27T07:54:49;59.37;;;14.90;;
8628;SDS011;4352;49.404;11.092;2022-11-27T07:57:18;61.47;;;15.97;;
8628;SDS011;4352;49.404;11.092;2022-11-27T07:59:45;60.40;;;13.90;;
8628;SDS011;4352;49.404;11.092;2022-11-27T08:02:12;48.73;;;12.83;;
8628;SDS011;4352;49.404;11.092;2022-11-27T08:04:39;55.50;;;13.77;;
8628;SDS011;4352;49.404;11.092;2022-11-27T08:07:06;34.73;;;12.07;;
8628;SDS011;4352;49.404;11.092;2022-11-27T08:09:33;39.23;;;12.90;;
8628;SDS011;4352;49.404;11.092;2022-11-27T08:12:01;32.63;;;11.80;;
8628;SDS011;4352;49.404;11.092;2022-11-27T08:14:30;36.13;;;12.17;;
8628;SDS011;4352;49.404;11.092;2022-11-27T08:16:57;39.87;;;12.70;;
8628;SDS011;4352;49.404;11.092;2022-11-27T08:19:24;33.60;;;12.97;;
8628;SDS011;4352;49.404;11.092;2022-11-27T08:21:52;37.40;;;11.77;;
8628;SDS011;4352;49.404;11.092;2022-11-27T08:24:20;30.70;;;10.97;;
8628;SDS011;4352;49.404;11.092;2022-11-27T08:26:47;26.83;;;10.37;;
8628;SDS011;4352;49.404;11.092;2022-11-27T08:29:16;28.63;;;11.00;;
8628;SDS011;4352;49.404;11.092;2022-11-27T08:31:44;32.07;;;11.40;;
8628;SDS011;4352;49.404;11.092;2022-11-27T08:34:11;29.93;;;11.20;;
8628;SDS011;4352;49.404;11.092;2022-11-27T08:36:38;29.63;;;10.80;;
8628;SDS011;4352;49.404;11.092;2022-11-27T08:39:05;30.13;;;10.77;;
8628;SDS011;4352;49.404;11.092;2022-11-27T08:41:33;28.50;;;10.83;;
8628;SDS011;4352;49.404;11.092;2022-11-27T08:44:01;27.73;;;11.13;;
8628;SDS011;4352;49.404;11.092;2022-11-27T08:46:29;26.20;;;9.97;;
8628;SDS011;4352;49.404;11.092;2022-11-27T08:48:58;22.93;;;9.87;;
8628;SDS011;4352;49.404;11.092;2022-11-27T08:51:26;25.83;;;10.27;;
8628;SDS011;4352;49.404;11.092;2022-11-27T08:53:53;19.93;;;9.47;;
8628;SDS011;4352;49.404;11.092;2022-11-27T08:56:21;26.63;;;8.80;;
8628;SDS011;4352;49.404;11.092;2022-11-27T08:58:48;23.00;;;8.83;;
8628;SDS011;4352;49.404;11.092;2022-11-27T09:01:16;23.43;;;9.13;;
8628;SDS011;4352;49.404;11.092;2022-11-27T09:03:44;22.33;;;8.63;;
8628;SDS011;4352;49.404;11.092;2022-11-27T09:06:13;29.00;;;8.93;;
8628;SDS011;4352;49.404;11.092;2022-11-27T09:08:41;19.43;;;9.87;;
8628;SDS011;4352;49.404;11.092;2022-11-27T09:11:09;20.83;;;8.40;;
8628;SDS011;4352;49.404;11.092;2022-11-27T09:13:36;20.33;;;9.17;;
8628;SDS011;4352;49.404;11.092;2022-11-27T09:16:05;22.53;;;9.33;;
8628;SDS011;4352;49.404;11.092;2022-11-27T09:18:32;21.60;;;10.47;;
8628;SDS011;4352;49.404;11.092;2022-11-27T09:21:00;20.80;;;7.70;;
8628;SDS011;4352;49.404;11.092;2022-11-27T09:23:28;19.23;;;8.63;;
8628;SDS011;4352;49.404;11.092;2022-11-27T09:25:57;18.23;;;9.63;;
8628;SDS011;4352;49.404;11.092;2022-11-27T09:28:24;19.67;;;9.30;;
8628;SDS011;4352;49.404;11.092;2022-11-27T09:30:53;25.13;;;9.87;;
8628;SDS011;4352;49.404;11.092;2022-11-27T09:33:20;16.43;;;8.63;;
8628;SDS011;4352;49.404;11.092;2022-11-27T09:35:48;18.10;;;8.80;;
8628;SDS011;4352;49.404;11.092;2022-11-27T09:38:15;18.63;;;9.40;;
8628;SDS011;4352;49.404;11.092;2022-11-27T09:40:44;21.03;;;8.83;;
8628;SDS011;4352;49.404;11.092;2022-11-27T09:43:13;21.13;;;10.00;;
8628;SDS011;4352;49.404;11.092;2022-11-27T09:45:42;20.47;;;9.83;;
8628;SDS011;4352;49.404;11.092;2022-11-27T09:48:11;19.87;;;9.97;;
8628;SDS011;4352;49.404;11.092;2022-11-27T09:50:40;17.70;;;9.50;;
8628;SDS011;4352;49.404;11.092;2022-11-27T09:53:17;19.20;;;10.07;;
8628;SDS011;4352;49.404;11.092;2022-11-27T09:55:48;20.23;;;10.13;;
8628;SDS011;4352;49.404;11.092;2022-11-27T09:58:16;18.27;;;9.07;;
8628;SDS011;4352;49.404;11.092;2022-11-27T10:00:44;22.37;;;10.17;;
8628;SDS011;4352;49.404;11.092;2022-11-27T10:03:12;21.70;;;9.80;;
8628;SDS011;4352;49.404;11.092;2022-11-27T10:05:40;20.43;;;9.03;;
8628;SDS011;4352;49.404;11.092;2022-11-27T10:08:18;16.20;;;9.37;;
8628;SDS011;4352;49.404;11.092;2022-11-27T10:10:52;16.10;;;9.37;;
8628;SDS011;4352;49.404;11.092;2022-11-27T10:13:27;19.27;;;9.53;;
8628;SDS011;4352;49.404;11.092;2022-11-27T10:16:00;17.30;;;8.90;;
8628;SDS011;4352;49.404;11.092;2022-11-27T10:18:31;20.37;;;9.63;;
8628;SDS011;4352;49.404;11.092;2022-11-27T10:21:02;17.97;;;9.93;;
8628;SDS011;4352;49.404;11.092;2022-11-27T10:23:35;19.13;;;9.53;;
8628;SDS011;4352;49.404;11.092;2022-11-27T10:26:11;17.60;;;9.70;;
8628;SDS011;4352;49.404;11.092;2022-11-27T10:28:40;18.73;;;11.50;;
8628;SDS011;4352;49.404;11.092;2022-11-27T10:31:12;19.67;;;10.67;;
8628;SDS011;4352;49.404;11.092;2022-11-27T10:33:41;22.97;;;11.57;;
8628;SDS011;4352;49.404;11.092;2022-11-27T10:36:10;20.67;;;11.10;;
8628;SDS011;4352;49.404;11.092;2022-11-27T10:38:39;22.73;;;11.90;;
8628;SDS011;4352;49.404;11.092;2022-11-27T10:41:07;24.43;;;13.27;;
8628;SDS011;4352;49.404;11.092;2022-11-27T10:43:38;23.47;;;11.93;;
8628;SDS011;4352;49.404;11.092;2022-11-27T10:46:08;24.20;;;13.63;;
8628;SDS011;4352;49.404;11.092;2022-11-27T10:48:38;24.93;;;12.50;;
8628;SDS011;4352;49.404;11.092;2022-11-27T10:51:09;25.60;;;14.03;;
8628;SDS011;4352;49.404;11.092;2022-11-27T10:53:38;25.80;;;12.67;;
8628;SDS011;4352;49.404;11.092;2022-11-27T10:56:19;28.47;;;13.60;;
8628;SDS011;4352;49.404;11.092;2022-11-27T10:58:50;23.40;;;11.77;;
8628;SDS011;4352;49.404;11.092;2022-11-27T11:01:19;21.93;;;13.03;;
8628;SDS011;4352;49.404;11.092;2022-11-27T11:03:46;19.30;;;11.10;;
8628;SDS011;4352;49.404;11.092;2022-11-27T11:06:14;20.40;;;11.17;;
8628;SDS011;4352;49.404;11.092;2022-11-27T11:08:42;22.67;;;12.57;;
8628;SDS011;4352;49.404;11.092;2022-11-27T11:11:09;22.77;;;12.00;;
8628;SDS011;4352;49.404;11.092;2022-11-27T11:13:41;22.33;;;10.80;;
8628;SDS011;4352;49.404;11.092;2022-11-27T11:16:15;24.87;;;13.73;;
8628;SDS011;4352;49.404;11.092;2022-11-27T11:18:44;19.20;;;10.97;;
8628;SDS011;4352;49.404;11.092;2022-11-27T11:21:14;23.63;;;12.27;;
8628;SDS011;4352;49.404;11.092;2022-11-27T11:23:42;22.17;;;11.57;;
8628;SDS011;4352;49.404;11.092;2022-11-27T11:26:12;19.03;;;10.90;;
8628;SDS011;4352;49.404;11.092;2022-11-27T11:28:43;20.30;;;10.87;;
8628;SDS011;4352;49.404;11.092;2022-11-27T11:31:12;19.67;;;11.40;;
8628;SDS011;4352;49.404;11.092;2022-11-27T11:33:48;21.87;;;11.83;;
8628;SDS011;4352;49.404;11.092;2022-11-27T11:36:15;20.27;;;11.50;;
8628;SDS011;4352;49.404;11.092;2022-11-27T11:38:43;18.30;;;10.93;;
8628;SDS011;4352;49.404;11.092;2022-11-27T11:41:11;23.30;;;12.43;;
8628;SDS011;4352;49.404;11.092;2022-11-27T11:43:51;16.63;;;10.03;;
8628;SDS011;4352;49.404;11.092;2022-11-27T11:46:19;18.67;;;10.23;;
8628;SDS011;4352;49.404;11.092;2022-11-27T11:49:01;16.90;;;10.10;;
8628;SDS011;4352;49.404;11.092;2022-11-27T11:51:31;18.53;;;10.17;;
8628;SDS011;4352;49.404;11.092;2022-11-27T11:54:02;17.70;;;10.40;;
8628;SDS011;4352;49.404;11.092;2022-11-27T11:56:32;15.63;;;10.03;;
8628;SDS011;4352;49.404;11.092;2022-11-27T11:58:59;15.10;;;9.50;;
8628;SDS011;4352;49.404;11.092;2022-11-27T12:01:33;17.60;;;10.63;;
8628;SDS011;4352;49.404;11.092;2022-11-27T12:04:10;19.73;;;11.40;;
8628;SDS011;4352;49.404;11.092;2022-11-27T12:06:44;18.00;;;10.63;;
8628;SDS011;4352;49.404;11.092;2022-11-27T12:09:22;20.53;;;10.57;;
8628;SDS011;4352;49.404;11.092;2022-11-27T12:11:52;19.50;;;11.53;;
8628;SDS011;4352;49.404;11.092;2022-11-27T12:14:23;19.47;;;11.87;;
8628;SDS011;4352;49.404;11.092;2022-11-27T12:16:56;18.30;;;10.83;;
8628;SDS011;4352;49.404;11.092;2022-11-27T12:22:12;16.00;;;9.03;;
8628;SDS011;4352;49.404;11.092;2022-11-27T12:24:45;16.13;;;9.47;;
8628;SDS011;4352;49.404;11.092;2022-11-27T12:27:18;15.27;;;9.47;;
8628;SDS011;4352;49.404;11.092;2022-11-27T12:29:52;13.47;;;9.37;;
8628;SDS011;4352;49.404;11.092;2022-11-27T12:32:31;16.13;;;10.17;;
8628;SDS011;4352;49.404;11.092;2022-11-27T12:35:02;14.50;;;9.40;;
8628;SDS011;4352;49.404;11.092;2022-11-27T12:37:41;19.97;;;10.80;;
8628;SDS011;4352;49.404;11.092;2022-11-27T12:42:58;21.00;;;11.87;;
8628;SDS011;4352;49.404;11.092;2022-11-27T12:45:29;18.83;;;11.73;;
8628;SDS011;4352;49.404;11.092;2022-11-27T12:47:59;16.40;;;10.17;;
8628;SDS011;4352;49.404;11.092;2022-11-27T12:50:32;19.47;;;10.87;;
8628;SDS011;4352;49.404;11.092;2022-11-27T12:53:04;21.60;;;11.37;;
8628;SDS011;4352;49.404;11.092;2022-11-27T12:55:39;16.73;;;10.90;;
8628;SDS011;4352;49.404;11.092;2022-11-27T12:58:09;17.63;;;10.40;;
8628;SDS011;4352;49.404;11.092;2022-11-27T13:00:40;17.97;;;10.83;;
8628;SDS011;4352;49.404;11.092;2022-11-27T13:03:10;20.13;;;10.93;;
8628;SDS011;4352;49.404;11.092;2022-11-27T13:05:40;23.50;;;11.17;;
8628;SDS011;4352;49.404;11.092;2022-11-27T13:08:12;19.60;;;10.40;;
8628;SDS011;4352;49.404;11.092;2022-11-27T13:10:40;18.47;;;10.63;;
8628;SDS011;4352;49.404;11.092;2022-11-27T13:13:10;17.67;;;10.90;;
8628;SDS011;4352;49.404;11.092;2022-11-27T13:15:41;17.83;;;10.77;;
8628;SDS011;4352;49.404;11.092;2022-11-27T13:18:12;16.93;;;10.60;;
8628;SDS011;4352;49.404;11.092;2022-11-27T13:20:40;19.83;;;10.80;;
8628;SDS011;4352;49.404;11.092;2022-11-27T13:23:07;23.00;;;11.30;;
8628;SDS011;4352;49.404;11.092;2022-11-27T13:25:41;20.57;;;9.77;;
8628;SDS011;4352;49.404;11.092;2022-11-27T13:28:13;21.57;;;10.73;;
8628;SDS011;4352;49.404;11.092;2022-11-27T13:30:44;20.37;;;10.70;;
8628;SDS011;4352;49.404;11.092;2022-11-27T13:33:15;18.20;;;10.97;;
8628;SDS011;4352;49.404;11.092;2022-11-27T13:35:45;17.30;;;10.50;;
8628;SDS011;4352;49.404;11.092;2022-11-27T13:38:12;18.60;;;10.93;;
8628;SDS011;4352;49.404;11.092;2022-11-27T13:40:42;15.93;;;10.90;;
8628;SDS011;4352;49.404;11.092;2022-11-27T13:43:17;20.30;;;10.43;;
8628;SDS011;4352;49.404;11.092;2022-11-27T13:45:45;17.10;;;11.63;;
8628;SDS011;4352;49.404;11.092;2022-11-27T13:48:19;19.60;;;10.23;;
8628;SDS011;4352;49.404;11.092;2022-11-27T13:50:49;18.20;;;10.43;;
8628;SDS011;4352;49.404;11.092;2022-11-27T13:53:16;16.43;;;10.33;;
8628;SDS011;4352;49.404;11.092;2022-11-27T13:55:52;17.33;;;10.43;;
8628;SDS011;4352;49.404;11.092;2022-11-27T13:58:26;18.47;;;10.63;;
8628;SDS011;4352;49.404;11.092;2022-11-27T14:00:54;17.13;;;10.40;;
8628;SDS011;4352;49.404;11.092;2022-11-27T14:03:22;17.70;;;9.83;;
8628;SDS011;4352;49.404;11.092;2022-11-27T14:05:49;18.80;;;10.07;;
8628;SDS011;4352;49.404;11.092;2022-11-27T14:08:17;16.87;;;10.37;;
8628;SDS011;4352;49.404;11.092;2022-11-27T14:10:50;15.93;;;9.77;;
8628;SDS011;4352;49.404;11.092;2022-11-27T14:13:20;18.27;;;10.07;;
8628;SDS011;4352;49.404;11.092;2022-11-27T14:15:56;16.20;;;9.53;;
8628;SDS011;4352;49.404;11.092;2022-11-27T14:18:25;15.83;;;9.80;;
8628;SDS011;4352;49.404;11.092;2022-11-27T14:20:55;18.80;;;10.17;;
8628;SDS011;4352;49.404;11.092;2022-11-27T14:23:26;13.87;;;9.27;;
8628;SDS011;4352;49.404;11.092;2022-11-27T14:25:59;25.37;;;13.80;;
8628;SDS011;4352;49.404;11.092;2022-11-27T14:28:28;16.37;;;10.90;;
8628;SDS011;4352;49.404;11.092;2022-11-27T14:30:57;18.63;;;9.83;;
8628;SDS011;4352;49.404;11.092;2022-11-27T14:33:25;16.27;;;9.00;;
8628;SDS011;4352;49.404;11.092;2022-11-27T14:35:53;15.93;;;10.10;;
8628;SDS011;4352;49.404;11.092;2022-11-27T14:38:21;16.70;;;9.73;;
8628;SDS011;4352;49.404;11.092;2022-11-27T14:40:49;14.33;;;8.67;;
8628;SDS011;4352;49.404;11.092;2022-11-27T14:43:18;16.77;;;9.93;;
8628;SDS011;4352;49.404;11.092;2022-11-27T14:45:49;19.93;;;10.17;;
8628;SDS011;4352;49.404;11.092;2022-11-27T14:48:18;16.57;;;10.17;;
8628;SDS011;4352;49.404;11.092;2022-11-27T14:50:46;21.67;;;13.10;;
8628;SDS011;4352;49.404;11.092;2022-11-27T14:53:13;25.80;;;13.80;;